createdAt,value
2022-11-02T00:00:26.709Z,100.00
2022-11-02T00:03:35.267Z,100.00
2022-11-02T00:06:43.700Z,100.00
2022-11-02T00:10:05.726Z,100.00
2022-11-02T00:13:13.707Z,100.00
2022-11-02T00:16:22.885Z,100.00
2022-11-02T00:19:37.694Z,100.00
2022-11-02T00:22:41.324Z,100.00
2022-11-02T00:26:02.062Z,100.00
2022-11-02T00:29:11.319Z,100.00
2022-11-02T00:32:19.700Z,100.00
2022-11-02T00:35:28.372Z,100.00
2022-11-02T00:38:42.699Z,100.00
2022-11-02T00:41:50.725Z,100.00
2022-11-02T00:44:59.347Z,100.00
2022-11-02T00:48:07.838Z,100.00
2022-11-02T00:51:22.720Z,100.00
2022-11-02T00:54:31.216Z,100.00
2022-11-02T00:57:39.717Z,100.00
2022-11-02T01:00:48.200Z,100.00
2022-11-02T01:04:03.705Z,100.00
2022-11-02T01:07:11.950Z,100.00
2022-11-02T01:10:28.712Z,100.00
2022-11-02T01:13:36.721Z,100.00
2022-11-02T01:16:51.714Z,100.00
2022-11-02T01:19:53.477Z,100.00
2022-11-02T01:23:08.721Z,100.00
2022-11-02T01:26:17.710Z,100.00
2022-11-02T01:29:26.717Z,100.00
2022-11-02T01:32:35.338Z,100.00
2022-11-02T01:35:49.700Z,100.00
2022-11-02T01:38:58.733Z,100.00
2022-11-02T01:42:22.274Z,100.00
2022-11-02T01:45:36.716Z,100.00
2022-11-02T01:48:56.399Z,100.00
2022-11-02T01:52:32.720Z,100.00
2022-11-02T01:55:41.533Z,100.00
2022-11-02T01:59:03.717Z,100.00
2022-11-02T02:02:20.838Z,100.00
2022-11-02T02:05:47.721Z,100.00
2022-11-02T02:09:06.717Z,100.00
2022-11-02T02:12:15.248Z,100.00
2022-11-02T02:15:38.727Z,100.00
2022-11-02T02:18:58.742Z,100.00
2022-11-02T02:22:31.867Z,100.00
2022-11-02T02:25:48.716Z,100.00
2022-11-02T02:29:09.704Z,100.00
2022-11-02T02:32:46.729Z,100.00
2022-11-02T02:36:00.011Z,100.00
2022-11-02T02:39:44.711Z,100.00
2022-11-02T02:43:05.695Z,100.00
2022-11-02T02:46:20.088Z,100.00
2022-11-02T02:49:56.719Z,100.00
2022-11-02T02:53:07.735Z,100.00
2022-11-02T02:56:21.173Z,100.00
2022-11-02T02:59:42.695Z,100.00
2022-11-02T03:02:53.709Z,100.00
2022-11-02T03:06:20.717Z,100.00
2022-11-02T03:09:39.866Z,100.00
2022-11-02T03:13:06.693Z,100.00
2022-11-02T03:16:29.720Z,100.00
2022-11-02T03:19:53.050Z,100.00
2022-11-02T03:23:20.764Z,100.00
2022-11-02T03:26:32.135Z,100.00
2022-11-02T03:29:51.733Z,100.00
2022-11-02T03:32:56.628Z,100.00
2022-11-02T03:36:38.717Z,100.00
2022-11-02T03:39:58.699Z,100.00
2022-11-02T03:43:13.717Z,100.00
2022-11-02T03:46:29.756Z,100.00
2022-11-02T03:49:33.186Z,100.00
2022-11-02T03:52:50.726Z,100.00
2022-11-02T03:56:12.731Z,100.00
2022-11-02T03:59:27.715Z,100.00
2022-11-02T04:02:36.765Z,100.00
2022-11-02T04:05:58.682Z,100.00
2022-11-02T04:09:13.717Z,100.00
2022-11-02T04:12:22.299Z,100.00
2022-11-02T04:15:36.738Z,100.00
2022-11-02T04:18:44.703Z,100.00
2022-11-02T04:22:00.727Z,100.00
2022-11-02T04:25:02.608Z,100.00
2022-11-02T04:28:17.734Z,100.00
2022-11-02T04:31:25.721Z,100.00
2022-11-02T04:34:34.258Z,100.00
2022-11-02T04:37:49.739Z,100.00
2022-11-02T04:40:51.657Z,100.00
2022-11-02T04:44:14.720Z,100.00
2022-11-02T04:47:23.302Z,100.00
2022-11-02T04:50:37.736Z,100.00
2022-11-02T04:53:45.733Z,100.00
2022-11-02T04:56:54.529Z,100.00
2022-11-02T05:00:03.722Z,100.00
2022-11-02T05:03:12.713Z,100.00
2022-11-02T05:06:29.709Z,100.00
2022-11-02T05:09:44.722Z,100.00
2022-11-02T05:13:00.278Z,100.00
2022-11-02T05:16:22.726Z,100.00
2022-11-02T05:19:31.293Z,100.00
2022-11-02T05:22:48.714Z,100.00
2022-11-02T05:26:08.693Z,100.00
2022-11-02T05:29:17.214Z,100.00
2022-11-02T05:32:25.697Z,100.00
2022-11-02T05:35:34.230Z,100.00
2022-11-02T05:38:48.705Z,100.00
2022-11-02T05:41:57.328Z,100.00
2022-11-02T05:45:12.714Z,100.00
2022-11-02T05:48:28.740Z,100.00
2022-11-02T05:51:37.188Z,100.00
2022-11-02T05:54:45.715Z,100.00
2022-11-02T05:58:01.727Z,100.00
2022-11-02T06:01:05.597Z,100.00
2022-11-02T06:04:20.749Z,100.00
2022-11-02T06:07:35.730Z,100.00
2022-11-02T06:10:50.943Z,100.00
2022-11-02T06:13:59.741Z,100.00
2022-11-02T06:17:14.718Z,100.00
2022-11-02T06:20:26.718Z,100.00
2022-11-02T06:23:42.709Z,100.00
2022-11-02T06:26:57.716Z,100.00
2022-11-02T06:30:05.728Z,100.00
2022-11-02T06:33:20.740Z,100.00
2022-11-02T06:36:22.584Z,100.00
2022-11-02T06:43:15.357Z,100.00
2022-11-02T06:46:30.731Z,100.00
2022-11-02T06:49:38.727Z,100.00
2022-11-02T06:52:54.717Z,100.00
2022-11-02T06:55:58.003Z,100.00
2022-11-02T06:59:12.736Z,100.00
2022-11-02T07:02:30.172Z,100.00
2022-11-02T07:05:38.230Z,100.00
2022-11-02T07:09:01.860Z,100.00
2022-11-02T07:12:04.124Z,100.00
2022-11-02T07:15:20.913Z,100.00
2022-11-02T07:18:29.732Z,100.00
2022-11-02T07:21:40.477Z,100.00
2022-11-02T07:24:57.743Z,100.00
2022-11-02T07:28:06.294Z,100.00
2022-11-02T07:31:20.774Z,100.00
2022-11-02T07:34:22.560Z,100.00
2022-11-02T07:37:37.981Z,100.00
2022-11-02T07:40:49.420Z,100.00
2022-11-02T07:43:58.757Z,100.00
2022-11-02T07:47:07.314Z,100.00
2022-11-02T07:50:24.732Z,100.00
2022-11-02T07:53:33.968Z,100.00
2022-11-02T07:56:42.782Z,100.00
2022-11-02T07:59:51.515Z,100.00
2022-11-02T08:03:10.153Z,100.00
2022-11-02T08:06:19.320Z,100.00
2022-11-02T08:09:40.729Z,100.00
2022-11-02T08:12:55.722Z,100.00
2022-11-02T08:16:04.694Z,100.00
2022-11-02T08:19:14.348Z,100.00
2022-11-02T08:22:22.654Z,100.00
2022-11-02T08:25:40.289Z,100.00
2022-11-02T08:28:48.420Z,100.00
2022-11-02T08:32:04.745Z,100.00
2022-11-02T08:35:14.739Z,100.00
2022-11-02T08:38:29.740Z,100.00
2022-11-02T08:41:31.576Z,100.00
2022-11-02T08:44:46.732Z,100.00
2022-11-02T08:47:55.491Z,100.00
2022-11-02T08:51:10.730Z,100.00
2022-11-02T08:54:19.360Z,100.00
2022-11-02T08:57:27.746Z,100.00
2022-11-02T09:00:36.927Z,100.00
2022-11-02T09:03:45.733Z,100.00
2022-11-02T09:07:00.713Z,100.00
2022-11-02T09:10:09.492Z,100.00
2022-11-02T09:13:26.776Z,100.00
2022-11-02T09:16:40.188Z,100.00
2022-11-02T09:19:55.720Z,100.00
2022-11-02T09:23:04.720Z,100.00
2022-11-02T09:26:13.316Z,100.00
2022-11-02T09:29:27.735Z,100.00
2022-11-02T09:32:35.722Z,100.00
2022-11-02T09:35:53.744Z,100.00
2022-11-02T09:39:02.259Z,100.00
2022-11-02T09:42:13.752Z,100.00
2022-11-02T09:45:23.032Z,100.00
2022-11-02T09:48:55.754Z,100.00
2022-11-02T09:52:11.733Z,100.00
2022-11-02T09:55:20.221Z,100.00
2022-11-02T09:58:42.726Z,100.00
2022-11-02T10:01:53.612Z,100.00
2022-11-02T10:05:25.714Z,100.00
2022-11-02T10:08:40.915Z,100.00
2022-11-02T10:12:24.712Z,100.00
2022-11-02T10:15:51.025Z,100.00
2022-11-02T10:19:05.739Z,100.00
2022-11-02T10:22:18.622Z,100.00
2022-11-02T10:25:28.733Z,100.00
2022-11-02T10:28:47.725Z,100.00
2022-11-02T10:32:03.721Z,100.00
2022-11-02T10:35:57.674Z,100.00
2022-11-02T10:39:20.054Z,100.00
2022-11-02T10:42:46.738Z,100.00
2022-11-02T10:46:04.756Z,100.00
2022-11-02T10:49:37.760Z,100.00
2022-11-02T10:52:47.339Z,99.74
2022-11-02T10:56:09.727Z,99.41
2022-11-02T10:59:20.739Z,99.69
2022-11-02T11:02:35.731Z,99.65
2022-11-02T11:06:05.752Z,100.00
2022-11-02T11:09:24.986Z,100.00
2022-11-02T11:12:44.741Z,99.93
2022-11-02T11:15:57.886Z,100.00
2022-11-02T11:22:52.729Z,100.00
2022-11-02T11:26:13.751Z,100.00
2022-11-02T11:29:23.475Z,100.00
2022-11-02T11:32:35.737Z,100.00
2022-11-02T11:35:55.734Z,100.00
2022-11-02T11:39:29.739Z,100.00
2022-11-02T11:42:42.134Z,100.00
2022-11-02T11:46:08.107Z,100.00
2022-11-02T11:49:55.148Z,99.89
2022-11-02T11:53:21.756Z,99.61
2022-11-02T11:56:30.312Z,98.10
2022-11-02T11:59:50.745Z,97.43
2022-11-02T12:03:06.379Z,98.04
2022-11-02T12:06:30.751Z,96.47
2022-11-02T12:09:44.278Z,96.39
2022-11-02T12:13:01.887Z,96.28
2022-11-02T12:16:28.713Z,95.73
2022-11-02T12:20:03.745Z,95.24
2022-11-02T12:23:24.760Z,95.26
2022-11-02T12:26:54.723Z,94.86
2022-11-02T12:30:18.854Z,95.43
2022-11-02T12:33:32.491Z,95.90
2022-11-02T12:37:35.376Z,94.10
2022-11-02T12:40:51.278Z,94.22
2022-11-02T12:44:20.285Z,96.20
2022-11-02T12:48:04.260Z,96.69
2022-11-02T12:51:28.778Z,96.09
2022-11-02T12:54:47.334Z,94.24
2022-11-02T12:57:55.775Z,92.53
2022-11-02T13:01:14.138Z,91.57
2022-11-02T13:04:43.965Z,92.44
2022-11-02T13:08:08.839Z,91.59
2022-11-02T13:11:37.979Z,90.26
2022-11-02T13:14:49.444Z,91.82
2022-11-02T13:18:03.103Z,91.60
2022-11-02T13:21:14.187Z,91.68
2022-11-02T13:24:44.765Z,93.31
2022-11-02T13:28:46.905Z,95.09
2022-11-02T13:32:06.750Z,96.85
2022-11-02T13:35:20.593Z,98.16
2022-11-02T13:38:44.748Z,98.55
2022-11-02T13:42:11.781Z,98.30
2022-11-02T13:46:07.768Z,98.46
2022-11-02T13:49:28.760Z,98.87
2022-11-02T13:52:48.746Z,99.07
2022-11-02T13:56:05.061Z,99.09
2022-11-02T13:59:16.779Z,97.67
2022-11-02T14:02:29.054Z,95.72
2022-11-02T14:05:42.775Z,95.86
2022-11-02T14:09:13.766Z,98.60
2022-11-02T14:12:28.754Z,99.19
2022-11-02T14:15:36.757Z,98.37
2022-11-02T14:18:45.383Z,95.31
2022-11-02T14:22:05.785Z,96.57
2022-11-02T14:25:16.501Z,98.16
2022-11-02T14:28:27.782Z,98.61
2022-11-02T14:31:51.740Z,99.18
2022-11-02T14:35:34.761Z,100.00
2022-11-02T14:38:59.057Z,100.00
2022-11-02T14:42:26.755Z,100.00
2022-11-02T14:45:56.753Z,94.47
2022-11-02T14:49:01.715Z,88.82
2022-11-02T14:52:19.763Z,85.52
2022-11-02T14:55:37.773Z,86.13
2022-11-02T14:58:48.904Z,84.64
2022-11-02T15:02:10.781Z,82.69
2022-11-02T15:05:41.781Z,83.07
2022-11-02T15:08:59.142Z,82.81
2022-11-02T15:12:35.798Z,83.06
2022-11-02T15:15:45.596Z,83.74
2022-11-02T15:18:53.820Z,83.70
2022-11-02T15:22:42.925Z,84.61
2022-11-02T15:25:59.767Z,85.93
2022-11-02T15:29:41.747Z,86.11
2022-11-02T15:33:01.928Z,85.88
2022-11-02T15:36:34.759Z,86.12
2022-11-02T15:39:56.770Z,87.00
2022-11-02T15:43:25.758Z,89.29
2022-11-02T15:46:52.773Z,91.32
2022-11-02T15:50:08.743Z,93.47
2022-11-02T15:53:26.763Z,94.51
2022-11-02T15:56:41.752Z,96.32
2022-11-02T16:00:01.777Z,96.67
2022-11-02T16:03:16.794Z,97.37
2022-11-02T16:06:45.760Z,98.54
2022-11-02T16:10:28.753Z,99.00
2022-11-02T16:14:03.509Z,99.63
2022-11-02T16:17:11.792Z,100.00
2022-11-02T16:20:39.745Z,100.00
2022-11-02T16:24:01.770Z,100.00
2022-11-02T16:27:04.039Z,100.00
2022-11-02T16:30:29.067Z,100.00
2022-11-02T16:33:40.036Z,100.00
2022-11-02T16:36:48.783Z,100.00
2022-11-02T16:40:05.749Z,100.00
2022-11-02T16:43:21.059Z,100.00
2022-11-02T16:46:39.687Z,100.00
2022-11-02T16:49:54.840Z,100.00
2022-11-02T16:53:05.486Z,100.00
2022-11-02T16:56:34.766Z,100.00
2022-11-02T16:59:45.696Z,100.00
2022-11-02T17:03:01.811Z,100.00
2022-11-02T17:06:07.537Z,100.00
2022-11-02T17:09:32.793Z,100.00
2022-11-02T17:12:44.798Z,100.00
2022-11-02T17:15:57.069Z,100.00
2022-11-02T17:19:45.768Z,100.00
2022-11-02T17:23:07.783Z,100.00
2022-11-02T17:26:29.829Z,100.00
2022-11-02T17:29:46.807Z,100.00
2022-11-02T17:33:13.762Z,100.00
2022-11-02T17:36:30.285Z,100.00
2022-11-02T17:39:49.773Z,100.00
2022-11-02T17:43:08.151Z,100.00
2022-11-02T17:46:18.162Z,100.00
2022-11-02T17:49:33.787Z,100.00
2022-11-02T17:52:52.165Z,100.00
2022-11-02T17:55:55.753Z,100.00
2022-11-02T17:59:15.504Z,100.00
2022-11-02T18:02:25.418Z,100.00
2022-11-02T18:05:46.760Z,100.00
2022-11-02T18:09:11.788Z,100.00
2022-11-02T18:12:15.979Z,100.00
2022-11-02T18:15:35.175Z,100.00
2022-11-02T18:18:47.289Z,100.00
2022-11-02T18:21:55.995Z,100.00
2022-11-02T18:25:15.141Z,100.00
2022-11-02T18:28:25.371Z,100.00
2022-11-02T18:31:35.312Z,100.00
2022-11-02T18:34:53.186Z,100.00
2022-11-02T18:37:57.295Z,100.00
2022-11-02T18:41:17.204Z,100.00
2022-11-02T18:44:32.751Z,100.00
2022-11-02T18:47:42.336Z,100.00
2022-11-02T18:50:53.316Z,100.00
2022-11-02T18:54:04.795Z,100.00
2022-11-02T18:57:14.313Z,100.00
2022-11-02T19:00:25.046Z,100.00
2022-11-02T19:03:42.038Z,100.00
2022-11-02T19:06:48.397Z,100.00
2022-11-02T19:10:10.162Z,100.00
2022-11-02T19:13:26.186Z,100.00
2022-11-02T19:16:36.181Z,100.00
2022-11-02T19:19:53.197Z,100.00
2022-11-02T19:23:02.176Z,100.00
2022-11-02T19:26:18.237Z,100.00
2022-11-02T19:29:27.615Z,100.00
2022-11-02T19:32:39.219Z,100.00
2022-11-02T19:36:05.005Z,100.00
2022-11-02T19:39:09.679Z,100.00
2022-11-02T19:42:26.143Z,100.00
2022-11-02T19:45:31.147Z,100.00
2022-11-02T19:48:48.106Z,100.00
2022-11-02T19:51:57.184Z,100.00
2022-11-02T19:55:08.603Z,100.00
2022-11-02T19:58:18.183Z,100.00
2022-11-02T20:01:35.833Z,100.00
2022-11-02T20:04:52.097Z,100.00
2022-11-02T20:08:01.206Z,100.00
2022-11-02T20:11:23.339Z,100.00
2022-11-02T20:14:39.024Z,100.00
2022-11-02T20:18:17.787Z,100.00
2022-11-02T20:21:36.899Z,100.00
2022-11-02T20:24:58.046Z,100.00
2022-11-02T20:28:07.663Z,100.00
2022-11-02T20:31:27.114Z,100.00
2022-11-02T20:34:37.072Z,100.00
2022-11-02T20:37:48.847Z,100.00
2022-11-02T20:40:57.786Z,100.00
2022-11-02T20:44:14.216Z,100.00
2022-11-02T20:47:23.962Z,100.00
2022-11-02T20:50:39.826Z,100.00
2022-11-02T20:53:55.842Z,100.00
2022-11-02T20:56:59.300Z,100.00
2022-11-02T21:00:16.183Z,100.00
2022-11-02T21:03:25.755Z,100.00
2022-11-02T21:06:34.812Z,100.00
2022-11-02T21:09:51.319Z,100.00
2022-11-02T21:13:07.585Z,100.00
2022-11-02T21:16:17.038Z,100.00
2022-11-02T21:19:31.794Z,100.00
2022-11-02T21:22:46.774Z,100.00
2022-11-02T21:25:54.795Z,100.00
2022-11-02T21:29:03.600Z,100.00
2022-11-02T21:32:11.786Z,100.00
2022-11-02T21:35:21.462Z,100.00
2022-11-02T21:38:36.787Z,100.00
2022-11-02T21:41:45.780Z,100.00
2022-11-02T21:44:54.318Z,100.00
2022-11-02T21:48:08.783Z,100.00
2022-11-02T21:51:24.784Z,100.00
2022-11-02T21:54:33.285Z,100.00
2022-11-02T21:57:41.783Z,100.00
2022-11-02T22:00:56.812Z,100.00
2022-11-02T22:04:12.772Z,99.95
2022-11-02T22:07:28.823Z,99.52
2022-11-02T22:10:43.997Z,99.39
2022-11-02T22:13:51.777Z,99.29
2022-11-02T22:17:22.195Z,98.62
2022-11-02T22:20:35.763Z,98.14
2022-11-02T22:23:46.207Z,97.69
2022-11-02T22:27:00.766Z,98.02
2022-11-02T22:30:15.798Z,98.37
2022-11-02T22:33:27.741Z,98.26
2022-11-02T22:36:37.772Z,98.64
2022-11-02T22:39:52.795Z,99.34
2022-11-02T22:42:54.648Z,99.71
2022-11-02T22:46:11.760Z,100.00
2022-11-02T22:49:21.790Z,100.00
2022-11-02T22:52:36.787Z,100.00
2022-11-02T22:55:45.247Z,100.00
2022-11-02T22:58:54.778Z,100.00
2022-11-02T23:02:09.825Z,100.00
2022-11-02T23:05:11.632Z,100.00
2022-11-02T23:11:53.765Z,99.50
2022-11-02T23:15:08.790Z,99.41
2022-11-02T23:18:17.971Z,99.03
2022-11-02T23:21:26.797Z,96.92
2022-11-02T23:24:35.294Z,96.67
2022-11-02T23:28:03.868Z,96.44
2022-11-02T23:31:12.344Z,96.01
2022-11-02T23:34:20.787Z,96.23
2022-11-02T23:37:29.863Z,96.49
2022-11-02T23:40:38.789Z,99.46
2022-11-02T23:43:47.775Z,100.00
2022-11-02T23:47:02.802Z,100.00
2022-11-02T23:50:04.828Z,100.00
2022-11-02T23:53:22.784Z,100.00
2022-11-02T23:56:33.261Z,100.00
2022-11-02T23:59:41.775Z,100.00
